Terminal Aerodrome Forecast
Issued by NWS

Home | Current Version | Previous Version | Text Only | Print | Product List | Glossary On
Versions: 1 2 3 4 5 6 7 8 9 10 11 12
000
FTUS46 KSGX 202341
TAFONT
TAF
KONT 202341Z 2100/2206 24014G22KT P6SM SCT030
     FM210300 26010KT P6SM SCT030
     FM210700 VRB04KT P6SM SKC
     FM211100 VRB06KT P6SM SKC WS020/06030KT
     FM212200 32009KT P6SM FEW250=

USA.gov is the U.S. government's official web portal to all federal, state and local government web resources and services.